Flight Track Log - Related Links

Times and Time Zones

All times are in EDT time to prevent confusion due to time zone crossing. See the PDT4429 flight status page for this flight to view local times or setup timezone preferences in your user account.

Time Position Orientation Groundspeed Altitude Reporting Facility
EDT Latitude Longitude Course Direction KTS MPH feet Rate Location/Type
Mon 10:53:06 AM 32.2647 -80.7133 321° Northwest 192 221 4,200  Level Jacksonville Center
Mon 10:54:06 AM 32.2967 -80.7444 321° Northwest 177 204 5,800 1,500 Climbing Jacksonville Center
Mon 10:55:06 AM 32.3283 -80.7781 318° Northwest 165 190 7,200 1,300 Climbing Jacksonville Center
Mon 10:56:06 AM 32.3625 -80.8167 316° Northwest 165 190 8,400 1,100 Climbing Jacksonville Center
Mon 10:57:06 AM 32.4050 -80.8625 318° Northwest 178 205 9,400 1,000 Climbing Jacksonville Center
Mon 10:58:06 AM 32.4389 -80.8939 322° Northwest 178 205 10,400 1,000 Climbing Jacksonville Center
Mon 10:59:06 AM 32.4814 -80.9397 318° Northwest 188 216 11,400 950 Climbing Jacksonville Center
Mon 11:00:06 AM 32.5258 -80.9756 326° Northwest 193 222 12,300 950 Climbing Jacksonville Center
Mon 11:01:06 AM 32.5722 -81.0117 327° Northwest 198 228 13,300 950 Climbing Jacksonville Center
Mon 11:02:06 AM 32.6144 -81.0528 321° Northwest 198 228 14,200 850 Climbing Jacksonville Center
Mon 11:03:06 AM 32.6672 -81.0936 327° Northwest 204 235 15,000 750 Climbing Jacksonville Center
Mon 11:04:06 AM 32.7136 -81.1247 331° Northwest 204 235 15,700 650 Climbing Jacksonville Center
Mon 11:05:06 AM 32.7622 -81.1608 328° Northwest 209 241 16,300 550 Climbing Jacksonville Center
Mon 11:06:06 AM 32.8169 -81.1919 334° Northwest 209 241 16,800 350 Climbing Jacksonville Center
Mon 11:07:06 AM 32.8733 -81.2083 346° North 209 241 17,000 100 Climbing Jacksonville Center
Mon 11:08:06 AM 32.9356 -81.1650 30° Northeast 210 242 17,000  Level Jacksonville Center
Mon 11:09:06 AM 32.9997 -81.1339 22° Northeast 228 262 17,000  Level Jacksonville Center
Mon 11:10:06 AM 33.0619 -81.1056 21° North 233 268 17,000  Level Jacksonville Center
Mon 11:11:06 AM 33.1283 -81.0694 24° Northeast 244 281 17,000  Level Jacksonville Center
Mon 11:12:06 AM 33.1925 -81.0383 22° Northeast 249 287 17,000  Level Jacksonville Center
Mon 11:13:06 AM 33.2589 -81.0022 24° Northeast 249 287 17,000  Level Jacksonville Center
Mon 11:14:06 AM 33.3272 -80.9683 23° Northeast 255 293 17,000  Level Jacksonville Center
Mon 11:15:06 AM 33.4017 -80.9344 21° North 255 293 17,000  Level Jacksonville Center
Mon 11:16:06 AM 33.4658 -80.8983 25° Northeast 250 288 17,000  Level Jacksonville Center
Mon 11:17:06 AM 33.5342 -80.8692 20° North 250 288 17,000  Level Jacksonville Center
Mon 11:18:06 AM 33.6003 -80.8278 28° Northeast 250 288 17,000  Level Jacksonville Center
Mon 11:19:06 AM 33.6686 -80.7914 24° Northeast 257 296 17,000  Level Jacksonville Center
Mon 11:20:06 AM 33.7350 -80.7597 22° Northeast 257 296 17,000  Level Jacksonville Center
Mon 11:21:06 AM 33.8011 -80.7208 26° Northeast 257 296 17,000 -100 Level Jacksonville Center
Mon 11:22:06 AM 33.8672 -80.6892 22° Northeast 252 290 16,800 -450 Descending Jacksonville Center
Mon 11:23:06 AM 33.9419 -80.6597 18° North 258 297 16,100 -750 Descending Jacksonville Center
Mon 11:24:06 AM 34.0100 -80.6128 30° Northeast 271 312 15,300 -800 Descending Jacksonville Center
Mon 11:25:06 AM 34.0842 -80.5658 28° Northeast 277 319 14,500 -800 Descending Jacksonville Center
Mon 11:26:06 AM 34.1586 -80.5311 21° North 277 319 13,700 -800 Descending Jacksonville Center
Mon 11:27:06 AM 34.2331 -80.4964 21° North 277 319 12,900 -800 Descending Jacksonville Center
Mon 11:28:06 AM 34.3053 -80.4542 26° Northeast 277 319 12,100 -800 Descending Jacksonville Center
Mon 11:29:06 AM 34.3794 -80.4144 24° Northeast 277 319 11,300 -800 Descending Jacksonville Center
Mon 11:30:06 AM 34.4519 -80.3772 23° Northeast 277 319 10,500 -800 Descending Jacksonville Center
Mon 11:31:06 AM 34.5242 -80.3422 22° Northeast 277 319 9,700 -900 Descending Jacksonville Center
Mon 11:32:06 AM 34.5861 -80.3128 21° North 263 303 8,700 -779 Descending Jacksonville Center
Mon 11:33:17 AM 34.6547 -80.2689 28° Northeast 240 276 8,000 -318 Descending Atlanta Center
Mon 11:34:18 AM 34.7161 -80.2356 24° Northeast 239 275 8,000  Level Atlanta Center
Mon 11:35:25 AM 34.7719 -80.2811 326° Northwest 204 235 8,000  Level Atlanta Center
Mon 11:36:26 AM 34.7942 -80.3308 299° West 181 208 8,000 -393 Level Atlanta Center
Mon 11:37:27 AM 34.7986 -80.4039 274° West 207 238 7,200 -885 Descending Atlanta Center
Mon 11:38:28 AM 34.8050 -80.4822 276° West 248 285 6,200 -590 Descending Atlanta Center
Mon 11:39:29 AM 34.8094 -80.5628 274° West 210 242 6,000 -98 Descending Atlanta Center
Mon 11:40:30 AM 34.8153 -80.6258 276° West 176 203 6,000  Level Atlanta Center
Mon 11:41:31 AM 34.8192 -80.6914 274° West 201 231 6,000 -259 Level Atlanta Center
Mon 11:42:26 AM 34.8231 -80.7544 274° West 202 232 5,500 -776 Descending Atlanta Center
Mon 11:43:27 AM 34.8250 -80.8278 272° West 217 250 4,500 -703 Descending Atlanta Center
Mon 11:44:34 AM 34.8250 -80.9064 270° West 193 222 4,000 -234 Descending Atlanta Center
Mon 11:45:35 AM 34.8714 -80.9247 342° North 179 206 4,000  Level Atlanta Center
Mon 11:46:36 AM 34.9236 -80.9278 357° North 185 213 4,000 49 Level Atlanta Center
Mon 11:47:37 AM 34.9717 -80.9336 354° North 176 203 4,100  Climbing Atlanta Center
Mon 11:48:38 AM 35.0219 -80.9394 355° North 173 199 4,000 -439 Descending Atlanta Center
Mon 11:49:40 AM 35.0700 -80.9403 359° North 174 200 3,200 -829 Descending Atlanta Center
Mon 11:50:41 AM 35.1139 -80.9486 351° North 163 188 2,300 -738 Descending Atlanta Center
Mon 11:51:42 AM 35.1517 -80.9500 358° North 131 151 1,700 -639 Descending Atlanta Center
Mon 11:52:43 AM 35.1869 -80.9511 359° North 127 146 1,000 794 Descending Atlanta Center
Mon 11:55:06 AM 35.2856 -81.0694 316° Northwest 266 306 4,400 1,803 Climbing Jacksonville Center
Mon 11:56:06 AM 35.2764 -81.1611 263° West 291 335 7,100 2,750 Climbing Jacksonville Center
Mon 11:57:06 AM 35.2569 -81.2633 257° West 291 335 9,900 2,200 Climbing Jacksonville Center
Mon 11:58:06 AM 35.2161 -81.3478 239° Southwest 286 329 11,500 1,700 Climbing Jacksonville Center
Mon 11:59:06 AM 35.1756 -81.4425 242° Southwest 315 362 13,300 1,850 Climbing Jacksonville Center
Mon 12:00:06 PM 35.1433 -81.5497 250° West 335 386 15,200 1,750 Climbing Jacksonville Center
Mon 12:01:06 PM 35.1364 -81.6692 266° West 353 406 16,800 1,350 Climbing Jacksonville Center
Mon 12:02:06 PM 35.1269 -81.7886 265° West 370 426 17,900 1,150 Climbing Jacksonville Center
Mon 12:03:06 PM 35.1175 -81.9131 265° West 370 426 19,100 1,200 Climbing Jacksonville Center
Mon 12:04:06 PM 35.1081 -82.0247 264° West 370 426 20,300 1,250 Climbing Jacksonville Center
Mon 12:05:06 PM 35.0983 -82.1517 265° West 375 432 21,600 1,200 Climbing Jacksonville Center
Mon 12:06:06 PM 35.0928 -82.2811 267° West 388 447 22,700 1,250 Climbing Jacksonville Center
Mon 12:07:06 PM 35.1247 -82.4078 287° West 383 441 24,100 1,300 Climbing Jacksonville Center
Mon 12:08:06 PM 35.1583 -82.5319 288° West 396 456 25,300 950 Climbing Jacksonville Center
Mon 12:09:06 PM 35.1900 -82.6667 286° West 408 470 26,000 350 Climbing Jacksonville Center
Mon 12:10:06 PM 35.2236 -82.8011 287° West 408 470 26,000 450 Level Jacksonville Center
Mon 12:11:06 PM 35.2611 -82.9433 288° West 423 487 26,900 1,200 Climbing Jacksonville Center
Mon 12:12:06 PM 35.2944 -83.0808 287° West 431 496 28,400 1,300 Climbing Jacksonville Center
Mon 12:13:06 PM 35.3294 -83.2131 288° West 425 489 29,500 800 Climbing Jacksonville Center
Mon 12:14:06 PM 35.3686 -83.3633 288° West 414 476 30,000 500 Climbing Jacksonville Center
Mon 12:15:06 PM 35.4056 -83.5036 288° West 431 496 30,500 1,000 Climbing Jacksonville Center
Mon 12:16:06 PM 35.4361 -83.6414 285° West 431 496 32,000 1,250 Climbing Jacksonville Center
Mon 12:17:06 PM 35.4667 -83.7692 286° West 403 464 33,000 950 Climbing Jacksonville Center
Mon 12:18:06 PM 35.5011 -83.8867 290° West 397 457 33,900 500 Climbing Jacksonville Center
Mon 12:19:06 PM 35.5250 -84.0169 283° West 397 457 34,000 50 Climbing Jacksonville Center
Mon 12:20:06 PM 35.5572 -84.1578 286° West 403 464 34,000  Level Jacksonville Center
Mon 12:21:06 PM 35.5950 -84.3114 287° West 433 498 34,000  Level Jacksonville Center
Mon 12:22:06 PM 35.6292 -84.4344 289° West 439 505 34,000 750 Level Jacksonville Center
Mon 12:23:06 PM 35.6647 -84.5706 288° West 426 490 35,500 1,000 Climbing Jacksonville Center
Mon 12:24:06 PM 35.6878 -84.7244 280° West 407 468 36,000 250 Climbing Jacksonville Center
Mon 12:25:06 PM 35.7192 -84.8581 286° West 407 468 36,000  Level Jacksonville Center
Mon 12:26:06 PM 35.7522 -84.9917 287° West 412 474 36,000  Level Jacksonville Center
Mon 12:27:06 PM 35.7875 -85.1308 287° West 435 501 36,000  Level Jacksonville Center
Mon 12:28:06 PM 35.8103 -85.2464 284° West 430 495 36,000 -13,000 Level Jacksonville Center
Mon 12:29:06 PM 35.8553 -85.4014 290° West 430 495 10,000 -26,000 Descending Jacksonville Center

Login

Don't have an account? Register now (free) for customized features, flight alerts, and more!